sensor_id;sensor_type;location;lat;lon;timestamp;P1;durP1;ratioP1;P2;durP2;ratioP2
78005;SDS011;67211;42.146;24.756;2023-02-28T00:00:29;10.43;;;5.65;;
78005;SDS011;67211;42.146;24.756;2023-02-28T00:02:54;9.07;;;6.45;;
78005;SDS011;67211;42.146;24.756;2023-02-28T00:05:20;10.43;;;6.10;;
78005;SDS011;67211;42.146;24.756;2023-02-28T00:07:47;14.65;;;6.82;;
78005;SDS011;67211;42.146;24.756;2023-02-28T00:10:14;11.90;;;6.07;;
78005;SDS011;67211;42.146;24.756;2023-02-28T00:12:48;11.18;;;6.65;;
78005;SDS011;67211;42.146;24.756;2023-02-28T00:15:17;10.30;;;7.22;;
78005;SDS011;67211;42.146;24.756;2023-02-28T00:17:43;11.38;;;6.40;;
78005;SDS011;67211;42.146;24.756;2023-02-28T00:20:09;12.30;;;6.63;;
78005;SDS011;67211;42.146;24.756;2023-02-28T00:22:43;13.18;;;7.65;;
78005;SDS011;67211;42.146;24.756;2023-02-28T00:25:11;12.40;;;6.35;;
78005;SDS011;67211;42.146;24.756;2023-02-28T00:27:39;10.90;;;6.80;;
78005;SDS011;67211;42.146;24.756;2023-02-28T00:30:05;12.43;;;6.78;;
78005;SDS011;67211;42.146;24.756;2023-02-28T00:32:32;12.75;;;7.28;;
78005;SDS011;67211;42.146;24.756;2023-02-28T00:34:57;12.45;;;6.43;;
78005;SDS011;67211;42.146;24.756;2023-02-28T00:37:23;11.73;;;6.32;;
78005;SDS011;67211;42.146;24.756;2023-02-28T00:39:49;11.70;;;6.55;;
78005;SDS011;67211;42.146;24.756;2023-02-28T00:42:14;16.25;;;6.93;;
78005;SDS011;67211;42.146;24.756;2023-02-28T00:44:39;11.45;;;6.10;;
78005;SDS011;67211;42.146;24.756;2023-02-28T00:47:05;16.80;;;6.93;;
78005;SDS011;67211;42.146;24.756;2023-02-28T00:49:31;11.55;;;6.43;;
78005;SDS011;67211;42.146;24.756;2023-02-28T00:51:56;11.02;;;6.30;;
78005;SDS011;67211;42.146;24.756;2023-02-28T00:54:22;11.82;;;5.88;;
78005;SDS011;67211;42.146;24.756;2023-02-28T00:56:48;11.35;;;5.95;;
78005;SDS011;67211;42.146;24.756;2023-02-28T00:59:14;12.70;;;7.03;;
78005;SDS011;67211;42.146;24.756;2023-02-28T01:01:40;11.82;;;6.63;;
78005;SDS011;67211;42.146;24.756;2023-02-28T01:04:06;10.88;;;6.35;;
78005;SDS011;67211;42.146;24.756;2023-02-28T01:06:32;15.05;;;7.28;;
78005;SDS011;67211;42.146;24.756;2023-02-28T01:08:58;9.77;;;6.57;;
78005;SDS011;67211;42.146;24.756;2023-02-28T01:11:24;10.60;;;6.03;;
78005;SDS011;67211;42.146;24.756;2023-02-28T01:13:49;11.88;;;6.57;;
78005;SDS011;67211;42.146;24.756;2023-02-28T01:16:15;9.50;;;5.85;;
78005;SDS011;67211;42.146;24.756;2023-02-28T01:18:41;12.10;;;6.80;;
78005;SDS011;67211;42.146;24.756;2023-02-28T01:21:07;11.93;;;6.03;;
78005;SDS011;67211;42.146;24.756;2023-02-28T01:23:35;11.80;;;6.18;;
78005;SDS011;67211;42.146;24.756;2023-02-28T01:26:05;8.95;;;5.45;;
78005;SDS011;67211;42.146;24.756;2023-02-28T01:28:31;9.77;;;5.80;;
78005;SDS011;67211;42.146;24.756;2023-02-28T01:30:56;13.23;;;5.85;;
78005;SDS011;67211;42.146;24.756;2023-02-28T01:33:22;11.48;;;5.53;;
78005;SDS011;67211;42.146;24.756;2023-02-28T01:35:47;11.45;;;5.53;;
78005;SDS011;67211;42.146;24.756;2023-02-28T01:38:13;9.73;;;5.90;;
78005;SDS011;67211;42.146;24.756;2023-02-28T01:40:40;11.68;;;5.85;;
78005;SDS011;67211;42.146;24.756;2023-02-28T01:43:11;11.68;;;5.97;;
78005;SDS011;67211;42.146;24.756;2023-02-28T01:45:45;9.02;;;5.10;;
78005;SDS011;67211;42.146;24.756;2023-02-28T01:48:11;7.18;;;4.95;;
78005;SDS011;67211;42.146;24.756;2023-02-28T01:50:38;10.25;;;7.35;;
78005;SDS011;67211;42.146;24.756;2023-02-28T01:53:06;13.00;;;5.43;;
78005;SDS011;67211;42.146;24.756;2023-02-28T01:55:34;11.68;;;5.72;;
78005;SDS011;67211;42.146;24.756;2023-02-28T01:58:00;11.73;;;5.78;;
78005;SDS011;67211;42.146;24.756;2023-02-28T02:00:28;10.45;;;5.22;;
78005;SDS011;67211;42.146;24.756;2023-02-28T02:02:55;8.80;;;5.50;;
78005;SDS011;67211;42.146;24.756;2023-02-28T02:05:24;14.77;;;5.30;;
78005;SDS011;67211;42.146;24.756;2023-02-28T02:07:52;11.93;;;5.53;;
78005;SDS011;67211;42.146;24.756;2023-02-28T02:10:21;15.48;;;6.57;;
78005;SDS011;67211;42.146;24.756;2023-02-28T02:16:10;10.65;;;5.63;;
78005;SDS011;67211;42.146;24.756;2023-02-28T02:18:51;12.90;;;6.07;;
78005;SDS011;67211;42.146;24.756;2023-02-28T02:26:50;12.90;;;7.15;;
78005;SDS011;67211;42.146;24.756;2023-02-28T02:29:42;12.07;;;7.78;;
78005;SDS011;67211;42.146;24.756;2023-02-28T02:35:18;14.52;;;7.70;;
78005;SDS011;67211;42.146;24.756;2023-02-28T02:43:36;12.32;;;7.45;;
78005;SDS011;67211;42.146;24.756;2023-02-28T02:46:10;11.75;;;7.20;;
78005;SDS011;67211;42.146;24.756;2023-02-28T02:48:40;15.23;;;6.78;;
78005;SDS011;67211;42.146;24.756;2023-02-28T02:51:07;15.32;;;7.72;;
78005;SDS011;67211;42.146;24.756;2023-02-28T02:53:38;13.63;;;6.80;;
78005;SDS011;67211;42.146;24.756;2023-02-28T02:56:08;16.50;;;8.63;;
78005;SDS011;67211;42.146;24.756;2023-02-28T02:58:36;14.18;;;7.47;;
78005;SDS011;67211;42.146;24.756;2023-02-28T03:01:07;16.17;;;8.93;;
78005;SDS011;67211;42.146;24.756;2023-02-28T03:03:36;14.77;;;7.10;;
78005;SDS011;67211;42.146;24.756;2023-02-28T03:06:02;17.08;;;7.78;;
78005;SDS011;67211;42.146;24.756;2023-02-28T03:08:29;13.30;;;7.45;;
78005;SDS011;67211;42.146;24.756;2023-02-28T03:11:03;13.82;;;7.75;;
78005;SDS011;67211;42.146;24.756;2023-02-28T03:13:40;17.45;;;8.25;;
78005;SDS011;67211;42.146;24.756;2023-02-28T03:25:05;14.07;;;10.32;;
78005;SDS011;67211;42.146;24.756;2023-02-28T03:27:39;19.02;;;8.95;;
78005;SDS011;67211;42.146;24.756;2023-02-28T03:30:23;16.55;;;9.25;;
78005;SDS011;67211;42.146;24.756;2023-02-28T03:32:59;14.63;;;8.55;;
78005;SDS011;67211;42.146;24.756;2023-02-28T03:35:34;16.40;;;9.10;;
78005;SDS011;67211;42.146;24.756;2023-02-28T03:38:07;14.02;;;8.77;;
78005;SDS011;67211;42.146;24.756;2023-02-28T03:40:39;14.10;;;8.35;;
78005;SDS011;67211;42.146;24.756;2023-02-28T03:43:09;21.35;;;12.07;;
78005;SDS011;67211;42.146;24.756;2023-02-28T03:45:38;17.30;;;9.80;;
78005;SDS011;67211;42.146;24.756;2023-02-28T03:48:19;16.02;;;8.80;;
78005;SDS011;67211;42.146;24.756;2023-02-28T03:50:57;16.63;;;10.73;;
78005;SDS011;67211;42.146;24.756;2023-02-28T03:53:36;13.82;;;10.82;;
78005;SDS011;67211;42.146;24.756;2023-02-28T03:56:23;17.88;;;8.88;;
78005;SDS011;67211;42.146;24.756;2023-02-28T03:59:17;14.07;;;8.70;;
78005;SDS011;67211;42.146;24.756;2023-02-28T04:01:47;13.48;;;9.02;;
78005;SDS011;67211;42.146;24.756;2023-02-28T04:04:13;19.20;;;9.23;;
78005;SDS011;67211;42.146;24.756;2023-02-28T04:06:40;12.98;;;8.90;;
78005;SDS011;67211;42.146;24.756;2023-02-28T04:09:06;19.02;;;10.65;;
78005;SDS011;67211;42.146;24.756;2023-02-28T04:11:34;15.63;;;9.43;;
78005;SDS011;67211;42.146;24.756;2023-02-28T04:14:02;19.85;;;11.25;;
78005;SDS011;67211;42.146;24.756;2023-02-28T04:16:29;16.10;;;9.18;;
78005;SDS011;67211;42.146;24.756;2023-02-28T04:18:55;16.70;;;9.45;;
78005;SDS011;67211;42.146;24.756;2023-02-28T04:21:27;14.55;;;8.65;;
78005;SDS011;67211;42.146;24.756;2023-02-28T04:24:14;13.60;;;8.35;;
78005;SDS011;67211;42.146;24.756;2023-02-28T04:26:49;15.23;;;10.68;;
78005;SDS011;67211;42.146;24.756;2023-02-28T04:29:20;16.05;;;8.82;;
78005;SDS011;67211;42.146;24.756;2023-02-28T04:31:49;14.57;;;7.30;;
78005;SDS011;67211;42.146;24.756;2023-02-28T04:34:15;14.02;;;8.60;;
78005;SDS011;67211;42.146;24.756;2023-02-28T04:36:41;19.63;;;10.95;;
78005;SDS011;67211;42.146;24.756;2023-02-28T04:39:07;15.68;;;9.15;;
78005;SDS011;67211;42.146;24.756;2023-02-28T04:41:34;15.63;;;8.50;;
78005;SDS011;67211;42.146;24.756;2023-02-28T04:44:00;15.15;;;10.25;;
78005;SDS011;67211;42.146;24.756;2023-02-28T04:46:25;15.50;;;10.32;;
78005;SDS011;67211;42.146;24.756;2023-02-28T04:48:51;14.68;;;8.75;;
78005;SDS011;67211;42.146;24.756;2023-02-28T04:51:17;13.63;;;7.82;;
78005;SDS011;67211;42.146;24.756;2023-02-28T04:53:44;22.63;;;8.82;;
78005;SDS011;67211;42.146;24.756;2023-02-28T04:56:11;15.98;;;8.60;;
78005;SDS011;67211;42.146;24.756;2023-02-28T04:58:38;13.10;;;7.93;;
78005;SDS011;67211;42.146;24.756;2023-02-28T05:01:05;15.40;;;9.18;;
78005;SDS011;67211;42.146;24.756;2023-02-28T05:03:38;13.85;;;8.80;;
78005;SDS011;67211;42.146;24.756;2023-02-28T05:06:05;15.15;;;10.15;;
78005;SDS011;67211;42.146;24.756;2023-02-28T05:08:32;14.50;;;9.48;;
78005;SDS011;67211;42.146;24.756;2023-02-28T05:10:57;16.52;;;11.02;;
78005;SDS011;67211;42.146;24.756;2023-02-28T05:13:23;13.70;;;8.70;;
78005;SDS011;67211;42.146;24.756;2023-02-28T05:15:49;15.43;;;9.02;;
78005;SDS011;67211;42.146;24.756;2023-02-28T05:18:14;14.40;;;9.30;;
78005;SDS011;67211;42.146;24.756;2023-02-28T05:20:39;16.52;;;9.10;;
78005;SDS011;67211;42.146;24.756;2023-02-28T05:23:05;14.30;;;10.15;;
78005;SDS011;67211;42.146;24.756;2023-02-28T05:25:30;17.02;;;9.57;;
78005;SDS011;67211;42.146;24.756;2023-02-28T05:27:56;17.52;;;10.05;;
78005;SDS011;67211;42.146;24.756;2023-02-28T05:30:21;14.80;;;9.05;;
78005;SDS011;67211;42.146;24.756;2023-02-28T05:32:49;15.30;;;9.77;;
78005;SDS011;67211;42.146;24.756;2023-02-28T05:35:15;13.90;;;8.98;;
78005;SDS011;67211;42.146;24.756;2023-02-28T05:37:41;16.45;;;9.48;;
78005;SDS011;67211;42.146;24.756;2023-02-28T05:40:06;15.85;;;8.35;;
78005;SDS011;67211;42.146;24.756;2023-02-28T05:42:35;16.25;;;9.10;;
78005;SDS011;67211;42.146;24.756;2023-02-28T05:45:01;16.08;;;9.00;;
78005;SDS011;67211;42.146;24.756;2023-02-28T05:47:27;14.73;;;9.30;;
78005;SDS011;67211;42.146;24.756;2023-02-28T05:49:53;13.27;;;9.02;;
78005;SDS011;67211;42.146;24.756;2023-02-28T05:52:18;13.80;;;8.75;;
78005;SDS011;67211;42.146;24.756;2023-02-28T05:54:44;16.40;;;8.65;;
78005;SDS011;67211;42.146;24.756;2023-02-28T05:57:11;15.05;;;8.82;;
78005;SDS011;67211;42.146;24.756;2023-02-28T05:59:36;13.25;;;8.13;;
78005;SDS011;67211;42.146;24.756;2023-02-28T06:02:04;13.65;;;8.55;;
78005;SDS011;67211;42.146;24.756;2023-02-28T06:04:31;14.50;;;8.70;;
78005;SDS011;67211;42.146;24.756;2023-02-28T06:06:56;15.07;;;10.48;;
78005;SDS011;67211;42.146;24.756;2023-02-28T06:09:23;16.70;;;9.18;;
78005;SDS011;67211;42.146;24.756;2023-02-28T06:11:48;15.02;;;9.05;;
78005;SDS011;67211;42.146;24.756;2023-02-28T06:14:14;15.18;;;8.65;;
78005;SDS011;67211;42.146;24.756;2023-02-28T06:16:41;15.95;;;9.20;;
78005;SDS011;67211;42.146;24.756;2023-02-28T06:19:07;14.10;;;8.63;;
78005;SDS011;67211;42.146;24.756;2023-02-28T06:21:33;16.52;;;8.60;;
78005;SDS011;67211;42.146;24.756;2023-02-28T06:23:59;14.45;;;8.85;;
78005;SDS011;67211;42.146;24.756;2023-02-28T06:26:25;15.82;;;8.60;;
78005;SDS011;67211;42.146;24.756;2023-02-28T06:28:50;14.60;;;8.43;;
78005;SDS011;67211;42.146;24.756;2023-02-28T06:31:16;22.92;;;11.63;;
78005;SDS011;67211;42.146;24.756;2023-02-28T06:33:43;17.92;;;9.05;;
78005;SDS011;67211;42.146;24.756;2023-02-28T06:36:10;20.77;;;10.32;;
78005;SDS011;67211;42.146;24.756;2023-02-28T06:38:36;24.67;;;16.45;;
78005;SDS011;67211;42.146;24.756;2023-02-28T06:41:02;17.20;;;10.00;;
78005;SDS011;67211;42.146;24.756;2023-02-28T06:43:29;15.27;;;8.38;;
78005;SDS011;67211;42.146;24.756;2023-02-28T06:45:57;17.80;;;9.70;;
78005;SDS011;67211;42.146;24.756;2023-02-28T06:48:23;79.72;;;33.28;;
78005;SDS011;67211;42.146;24.756;2023-02-28T06:50:49;79.22;;;34.22;;
78005;SDS011;67211;42.146;24.756;2023-02-28T06:53:15;39.50;;;18.75;;
78005;SDS011;67211;42.146;24.756;2023-02-28T06:55:40;23.55;;;15.38;;
78005;SDS011;67211;42.146;24.756;2023-02-28T06:58:06;18.25;;;10.10;;
78005;SDS011;67211;42.146;24.756;2023-02-28T07:00:43;15.57;;;8.50;;
78005;SDS011;67211;42.146;24.756;2023-02-28T07:03:10;16.48;;;10.05;;
78005;SDS011;67211;42.146;24.756;2023-02-28T07:05:37;20.05;;;11.68;;
78005;SDS011;67211;42.146;24.756;2023-02-28T07:08:03;18.05;;;9.88;;
78005;SDS011;67211;42.146;24.756;2023-02-28T07:10:30;16.70;;;9.50;;
78005;SDS011;67211;42.146;24.756;2023-02-28T07:12:55;17.63;;;10.27;;
78005;SDS011;67211;42.146;24.756;2023-02-28T07:15:23;17.67;;;9.48;;
78005;SDS011;67211;42.146;24.756;2023-02-28T07:17:49;19.88;;;10.77;;
78005;SDS011;67211;42.146;24.756;2023-02-28T07:20:15;18.67;;;10.68;;
78005;SDS011;67211;42.146;24.756;2023-02-28T07:22:40;18.98;;;9.82;;
78005;SDS011;67211;42.146;24.756;2023-02-28T07:25:06;18.27;;;10.50;;
78005;SDS011;67211;42.146;24.756;2023-02-28T07:27:33;27.80;;;15.77;;
78005;SDS011;67211;42.146;24.756;2023-02-28T07:29:59;19.83;;;11.07;;
78005;SDS011;67211;42.146;24.756;2023-02-28T07:32:26;21.45;;;10.73;;
78005;SDS011;67211;42.146;24.756;2023-02-28T07:34:52;20.48;;;11.77;;
78005;SDS011;67211;42.146;24.756;2023-02-28T07:37:18;19.42;;;12.35;;
78005;SDS011;67211;42.146;24.756;2023-02-28T07:39:43;35.85;;;20.50;;
78005;SDS011;67211;42.146;24.756;2023-02-28T07:42:10;31.75;;;18.92;;
78005;SDS011;67211;42.146;24.756;2023-02-28T07:44:37;40.08;;;26.65;;
78005;SDS011;67211;42.146;24.756;2023-02-28T07:47:08;37.35;;;23.33;;
78005;SDS011;67211;42.146;24.756;2023-02-28T07:49:35;20.85;;;12.57;;
78005;SDS011;67211;42.146;24.756;2023-02-28T07:52:02;21.88;;;12.15;;
78005;SDS011;67211;42.146;24.756;2023-02-28T07:54:28;22.38;;;11.90;;
78005;SDS011;67211;42.146;24.756;2023-02-28T07:56:54;21.25;;;11.95;;
78005;SDS011;67211;42.146;24.756;2023-02-28T07:59:19;22.92;;;14.02;;
78005;SDS011;67211;42.146;24.756;2023-02-28T08:01:45;19.88;;;12.25;;
78005;SDS011;67211;42.146;24.756;2023-02-28T08:04:10;23.55;;;17.40;;
78005;SDS011;67211;42.146;24.756;2023-02-28T08:06:35;23.77;;;17.30;;
78005;SDS011;67211;42.146;24.756;2023-02-28T08:09:01;23.48;;;14.18;;
78005;SDS011;67211;42.146;24.756;2023-02-28T08:11:27;23.70;;;12.85;;
78005;SDS011;67211;42.146;24.756;2023-02-28T08:13:52;23.45;;;12.63;;
78005;SDS011;67211;42.146;24.756;2023-02-28T08:16:17;22.10;;;12.38;;
78005;SDS011;67211;42.146;24.756;2023-02-28T08:18:47;22.70;;;13.02;;
78005;SDS011;67211;42.146;24.756;2023-02-28T08:21:13;23.73;;;12.07;;
78005;SDS011;67211;42.146;24.756;2023-02-28T08:23:39;22.83;;;12.05;;
78005;SDS011;67211;42.146;24.756;2023-02-28T08:26:04;20.85;;;11.30;;
78005;SDS011;67211;42.146;24.756;2023-02-28T08:28:30;27.05;;;15.20;;
78005;SDS011;67211;42.146;24.756;2023-02-28T08:30:56;21.17;;;12.75;;
78005;SDS011;67211;42.146;24.756;2023-02-28T08:33:22;37.63;;;16.27;;
78005;SDS011;67211;42.146;24.756;2023-02-28T08:35:48;27.58;;;14.25;;
78005;SDS011;67211;42.146;24.756;2023-02-28T08:38:13;44.20;;;20.92;;
78005;SDS011;67211;42.146;24.756;2023-02-28T08:40:38;35.45;;;16.92;;
78005;SDS011;67211;42.146;24.756;2023-02-28T08:43:04;35.80;;;17.98;;
78005;SDS011;67211;42.146;24.756;2023-02-28T08:45:29;36.88;;;17.75;;
78005;SDS011;67211;42.146;24.756;2023-02-28T08:47:55;45.30;;;22.13;;
78005;SDS011;67211;42.146;24.756;2023-02-28T08:50:21;47.08;;;30.40;;
78005;SDS011;67211;42.146;24.756;2023-02-28T08:52:47;23.05;;;15.15;;
78005;SDS011;67211;42.146;24.756;2023-02-28T08:55:12;26.02;;;17.50;;
78005;SDS011;67211;42.146;24.756;2023-02-28T08:57:37;22.67;;;13.63;;
78005;SDS011;67211;42.146;24.756;2023-02-28T09:00:03;21.70;;;13.38;;
78005;SDS011;67211;42.146;24.756;2023-02-28T09:02:29;22.65;;;12.77;;
78005;SDS011;67211;42.146;24.756;2023-02-28T09:04:56;23.83;;;15.85;;
78005;SDS011;67211;42.146;24.756;2023-02-28T09:07:22;21.77;;;12.93;;
78005;SDS011;67211;42.146;24.756;2023-02-28T09:09:47;24.60;;;13.73;;
78005;SDS011;67211;42.146;24.756;2023-02-28T09:12:23;21.33;;;13.27;;
78005;SDS011;67211;42.146;24.756;2023-02-28T09:14:49;18.92;;;13.45;;
78005;SDS011;67211;42.146;24.756;2023-02-28T09:17:14;35.38;;;18.17;;
78005;SDS011;67211;42.146;24.756;2023-02-28T09:19:40;28.75;;;15.60;;
78005;SDS011;67211;42.146;24.756;2023-02-28T09:22:05;24.33;;;15.15;;
78005;SDS011;67211;42.146;24.756;2023-02-28T09:24:31;33.38;;;19.42;;
78005;SDS011;67211;42.146;24.756;2023-02-28T09:26:56;32.63;;;18.00;;
78005;SDS011;67211;42.146;24.756;2023-02-28T09:29:22;28.95;;;17.48;;
78005;SDS011;67211;42.146;24.756;2023-02-28T09:31:47;35.45;;;18.92;;
78005;SDS011;67211;42.146;24.756;2023-02-28T09:34:13;27.30;;;15.02;;
78005;SDS011;67211;42.146;24.756;2023-02-28T09:36:39;27.58;;;16.00;;
78005;SDS011;67211;42.146;24.756;2023-02-28T09:39:04;30.30;;;21.05;;
78005;SDS011;67211;42.146;24.756;2023-02-28T09:41:32;23.05;;;13.68;;
78005;SDS011;67211;42.146;24.756;2023-02-28T09:44:05;19.45;;;11.65;;
78005;SDS011;67211;42.146;24.756;2023-02-28T09:46:43;20.25;;;12.48;;
78005;SDS011;67211;42.146;24.756;2023-02-28T09:49:12;24.13;;;15.77;;
78005;SDS011;67211;42.146;24.756;2023-02-28T09:51:59;24.05;;;14.10;;
78005;SDS011;67211;42.146;24.756;2023-02-28T09:54:28;23.95;;;13.50;;
78005;SDS011;67211;42.146;24.756;2023-02-28T10:00:41;21.67;;;12.27;;
78005;SDS011;67211;42.146;24.756;2023-02-28T10:02:41;21.38;;;13.00;;
78005;SDS011;67211;42.146;24.756;2023-02-28T10:05:15;26.52;;;14.40;;
78005;SDS011;67211;42.146;24.756;2023-02-28T10:10:44;26.42;;;14.45;;
78005;SDS011;67211;42.146;24.756;2023-02-28T10:13:13;29.63;;;15.07;;
78005;SDS011;67211;42.146;24.756;2023-02-28T10:15:51;24.85;;;15.02;;
78005;SDS011;67211;42.146;24.756;2023-02-28T10:18:21;23.80;;;14.50;;
78005;SDS011;67211;42.146;24.756;2023-02-28T10:20:49;27.05;;;14.52;;
78005;SDS011;67211;42.146;24.756;2023-02-28T10:23:19;24.77;;;14.32;;
78005;SDS011;67211;42.146;24.756;2023-02-28T10:25:50;24.90;;;15.40;;
78005;SDS011;67211;42.146;24.756;2023-02-28T10:28:19;28.15;;;14.93;;
78005;SDS011;67211;42.146;24.756;2023-02-28T10:30:51;29.13;;;15.82;;
78005;SDS011;67211;42.146;24.756;2023-02-28T10:35:56;23.65;;;15.50;;
78005;SDS011;67211;42.146;24.756;2023-02-28T10:38:55;25.58;;;14.68;;
78005;SDS011;67211;42.146;24.756;2023-02-28T10:41:36;32.08;;;16.60;;
78005;SDS011;67211;42.146;24.756;2023-02-28T10:46:46;27.00;;;16.17;;
78005;SDS011;67211;42.146;24.756;2023-02-28T10:49:13;28.55;;;18.38;;
78005;SDS011;67211;42.146;24.756;2023-02-28T10:51:42;27.58;;;15.55;;
78005;SDS011;67211;42.146;24.756;2023-02-28T10:54:41;35.35;;;16.77;;
78005;SDS011;67211;42.146;24.756;2023-02-28T10:59:46;27.58;;;16.20;;
78005;SDS011;67211;42.146;24.756;2023-02-28T11:02:35;26.02;;;16.80;;
78005;SDS011;67211;42.146;24.756;2023-02-28T11:05:20;28.63;;;16.90;;
78005;SDS011;67211;42.146;24.756;2023-02-28T11:07:54;28.80;;;14.65;;
78005;SDS011;67211;42.146;24.756;2023-02-28T11:10:30;26.02;;;15.93;;
78005;SDS011;67211;42.146;24.756;2023-02-28T11:15:26;27.10;;;14.52;;
78005;SDS011;67211;42.146;24.756;2023-02-28T11:17:53;27.55;;;14.48;;
78005;SDS011;67211;42.146;24.756;2023-02-28T11:20:21;23.63;;;14.20;;
78005;SDS011;67211;42.146;24.756;2023-02-28T11:22:48;23.42;;;16.05;;
78005;SDS011;67211;42.146;24.756;2023-02-28T11:25:25;26.77;;;16.13;;
78005;SDS011;67211;42.146;24.756;2023-02-28T11:27:53;24.40;;;14.32;;
78005;SDS011;67211;42.146;24.756;2023-02-28T11:30:28;22.45;;;14.25;;
78005;SDS011;67211;42.146;24.756;2023-02-28T11:32:55;27.67;;;17.33;;
78005;SDS011;67211;42.146;24.756;2023-02-28T11:35:23;26.77;;;15.32;;
78005;SDS011;67211;42.146;24.756;2023-02-28T11:37:52;26.42;;;15.18;;
78005;SDS011;67211;42.146;24.756;2023-02-28T11:40:19;28.23;;;16.10;;
78005;SDS011;67211;42.146;24.756;2023-02-28T11:42:55;24.08;;;14.77;;
78005;SDS011;67211;42.146;24.756;2023-02-28T11:48:27;27.77;;;15.65;;
78005;SDS011;67211;42.146;24.756;2023-02-28T11:51:10;26.67;;;15.00;;
78005;SDS011;67211;42.146;24.756;2023-02-28T11:59:14;26.83;;;16.08;;
78005;SDS011;67211;42.146;24.756;2023-02-28T12:02:05;27.33;;;15.80;;
78005;SDS011;67211;42.146;24.756;2023-02-28T12:04:54;26.85;;;17.05;;
78005;SDS011;67211;42.146;24.756;2023-02-28T12:10:23;26.42;;;16.15;;
78005;SDS011;67211;42.146;24.756;2023-02-28T12:24:21;33.67;;;18.50;;
78005;SDS011;67211;42.146;24.756;2023-02-28T12:27:23;33.40;;;19.75;;
78005;SDS011;67211;42.146;24.756;2023-02-28T12:32:38;74.60;;;43.63;;
78005;SDS011;67211;42.146;24.756;2023-02-28T12:37:50;31.27;;;19.60;;
78005;SDS011;67211;42.146;24.756;2023-02-28T12:40:20;29.77;;;19.50;;
78005;SDS011;67211;42.146;24.756;2023-02-28T12:42:49;35.15;;;18.38;;
78005;SDS011;67211;42.146;24.756;2023-02-28T12:45:18;31.90;;;20.15;;
78005;SDS011;67211;42.146;24.756;2023-02-28T12:47:45;31.98;;;19.55;;
78005;SDS011;67211;42.146;24.756;2023-02-28T12:50:16;33.13;;;19.45;;
78005;SDS011;67211;42.146;24.756;2023-02-28T12:55:30;33.05;;;18.02;;
78005;SDS011;67211;42.146;24.756;2023-02-28T13:09:16;63.33;;;31.35;;
78005;SDS011;67211;42.146;24.756;2023-02-28T13:11:25;35.40;;;19.05;;
78005;SDS011;67211;42.146;24.756;2023-02-28T13:13:59;28.55;;;17.05;;
78005;SDS011;67211;42.146;24.756;2023-02-28T13:16:27;32.28;;;19.83;;
78005;SDS011;67211;42.146;24.756;2023-02-28T13:18:52;31.58;;;19.05;;
78005;SDS011;67211;42.146;24.756;2023-02-28T13:21:40;27.38;;;18.70;;
78005;SDS011;67211;42.146;24.756;2023-02-28T13:24:08;26.90;;;16.77;;
78005;SDS011;67211;42.146;24.756;2023-02-28T13:29:04;25.75;;;15.40;;
78005;SDS011;67211;42.146;24.756;2023-02-28T13:34:30;26.33;;;15.00;;
78005;SDS011;67211;42.146;24.756;2023-02-28T13:39:48;31.90;;;17.85;;
78005;SDS011;67211;42.146;24.756;2023-02-28T13:47:28;30.70;;;16.80;;
78005;SDS011;67211;42.146;24.756;2023-02-28T13:50:13;25.58;;;16.70;;
78005;SDS011;67211;42.146;24.756;2023-02-28T13:53:27;23.02;;;15.95;;
78005;SDS011;67211;42.146;24.756;2023-02-28T13:55:57;27.73;;;17.10;;
78005;SDS011;67211;42.146;24.756;2023-02-28T14:06:36;29.75;;;17.42;;
78005;SDS011;67211;42.146;24.756;2023-02-28T14:09:16;28.13;;;17.63;;
78005;SDS011;67211;42.146;24.756;2023-02-28T14:11:49;27.38;;;16.33;;
78005;SDS011;67211;42.146;24.756;2023-02-28T14:16:59;26.20;;;14.93;;
78005;SDS011;67211;42.146;24.756;2023-02-28T14:19:34;26.83;;;15.07;;
78005;SDS011;67211;42.146;24.756;2023-02-28T14:27:38;23.88;;;16.85;;
78005;SDS011;67211;42.146;24.756;2023-02-28T14:30:37;21.42;;;14.90;;
78005;SDS011;67211;42.146;24.756;2023-02-28T14:38:31;22.52;;;13.82;;
78005;SDS011;67211;42.146;24.756;2023-02-28T14:40:58;23.50;;;14.93;;
78005;SDS011;67211;42.146;24.756;2023-02-28T14:43:27;24.13;;;14.77;;
78005;SDS011;67211;42.146;24.756;2023-02-28T14:45:57;24.73;;;14.70;;
78005;SDS011;67211;42.146;24.756;2023-02-28T14:48:24;29.83;;;17.70;;
78005;SDS011;67211;42.146;24.756;2023-02-28T14:50:52;31.20;;;19.65;;
78005;SDS011;67211;42.146;24.756;2023-02-28T14:53:21;26.10;;;15.93;;
78005;SDS011;67211;42.146;24.756;2023-02-28T14:55:48;26.55;;;17.10;;
78005;SDS011;67211;42.146;24.756;2023-02-28T15:01:19;24.60;;;17.33;;
78005;SDS011;67211;42.146;24.756;2023-02-28T15:03:46;23.38;;;16.88;;
78005;SDS011;67211;42.146;24.756;2023-02-28T15:06:13;31.30;;;19.90;;
78005;SDS011;67211;42.146;24.756;2023-02-28T15:09:10;25.90;;;18.30;;
78005;SDS011;67211;42.146;24.756;2023-02-28T15:11:40;28.33;;;17.05;;
78005;SDS011;67211;42.146;24.756;2023-02-28T15:14:06;22.73;;;13.75;;
78005;SDS011;67211;42.146;24.756;2023-02-28T15:16:38;24.33;;;14.88;;
78005;SDS011;67211;42.146;24.756;2023-02-28T15:19:25;25.95;;;15.85;;
78005;SDS011;67211;42.146;24.756;2023-02-28T15:21:54;24.08;;;17.45;;
78005;SDS011;67211;42.146;24.756;2023-02-28T15:27:07;21.55;;;14.63;;
78005;SDS011;67211;42.146;24.756;2023-02-28T15:29:48;21.98;;;13.75;;
78005;SDS011;67211;42.146;24.756;2023-02-28T15:34:47;21.13;;;14.77;;
78005;SDS011;67211;42.146;24.756;2023-02-28T15:39:52;19.10;;;12.50;;
78005;SDS011;67211;42.146;24.756;2023-02-28T15:42:19;21.98;;;13.05;;
78005;SDS011;67211;42.146;24.756;2023-02-28T15:44:46;19.75;;;14.50;;
78005;SDS011;67211;42.146;24.756;2023-02-28T15:49:54;18.17;;;12.20;;
78005;SDS011;67211;42.146;24.756;2023-02-28T15:52:24;20.17;;;12.05;;
78005;SDS011;67211;42.146;24.756;2023-02-28T15:54:53;20.88;;;11.63;;
78005;SDS011;67211;42.146;24.756;2023-02-28T15:57:20;19.67;;;13.48;;
78005;SDS011;67211;42.146;24.756;2023-02-28T15:59:51;19.45;;;10.88;;
78005;SDS011;67211;42.146;24.756;2023-02-28T16:02:21;20.17;;;11.60;;
78005;SDS011;67211;42.146;24.756;2023-02-28T16:07:21;21.10;;;12.38;;
78005;SDS011;67211;42.146;24.756;2023-02-28T16:09:47;22.85;;;13.20;;
78005;SDS011;67211;42.146;24.756;2023-02-28T16:12:13;19.83;;;12.90;;
78005;SDS011;67211;42.146;24.756;2023-02-28T16:14:38;20.98;;;12.18;;
78005;SDS011;67211;42.146;24.756;2023-02-28T16:17:06;23.20;;;12.48;;
78005;SDS011;67211;42.146;24.756;2023-02-28T16:19:36;23.90;;;11.82;;
78005;SDS011;67211;42.146;24.756;2023-02-28T16:22:01;20.58;;;12.82;;
78005;SDS011;67211;42.146;24.756;2023-02-28T16:24:26;24.20;;;14.70;;
78005;SDS011;67211;42.146;24.756;2023-02-28T16:26:53;20.42;;;12.68;;
78005;SDS011;67211;42.146;24.756;2023-02-28T16:29:21;20.67;;;12.82;;
78005;SDS011;67211;42.146;24.756;2023-02-28T16:31:55;19.55;;;12.00;;
78005;SDS011;67211;42.146;24.756;2023-02-28T16:34:20;16.88;;;10.98;;
78005;SDS011;67211;42.146;24.756;2023-02-28T16:36:47;18.60;;;11.55;;
78005;SDS011;67211;42.146;24.756;2023-02-28T16:39:13;18.92;;;12.45;;
78005;SDS011;67211;42.146;24.756;2023-02-28T16:41:39;17.33;;;9.77;;